Time;durP1;ratioP1;P1;durP2;ratioP2;P2;SDS_P1;SDS_P2;PMS_P1;PMS_P2;Temp;Humidity;BMP_temperature;BMP_pressure;BME280_temperature;BME280_humidity;BME280_pressure;Samples;Min_cycle;Max_cycle;Signal;HPM_P1;HPM_P2
2023/11/20 00:01:49;;;;;;;24.00;17.42;;;7.20;99.90;;;;;;4968594;28;20102;-60
2023/11/20 00:04:15;;;;;;;24.90;19.25;;;7.00;99.90;;;;;;4982157;28;20034;-54
2023/11/20 00:06:40;;;;;;;39.90;22.08;;;7.20;99.90;;;;;;4968721;28;20043;-56
2023/11/20 00:09:09;;;;;;;98.93;42.33;;;7.20;99.90;;;;;;4951958;28;20479;-60
2023/11/20 00:11:35;;;;;;;165.00;52.80;;;7.10;99.90;;;;;;4971486;28;20023;-55
2023/11/20 00:14:01;;;;;;;58.60;27.02;;;7.10;99.90;;;;;;4969310;28;20034;-57
2023/11/20 00:16:27;;;;;;;52.22;26.98;;;6.80;99.90;;;;;;4965864;28;20418;-53
2023/11/20 00:18:52;;;;;;;33.97;21.42;;;6.90;99.90;;;;;;4947499;28;20043;-57
2023/11/20 00:21:18;;;;;;;24.00;16.00;;;7.00;99.90;;;;;;4963813;28;20387;-58
2023/11/20 00:23:44;;;;;;;15.98;11.93;;;7.00;99.90;;;;;;4965043;28;20033;-55
2023/11/20 00:26:15;;;;;;;17.83;11.13;;;6.60;99.90;;;;;;4963026;28;20467;-60
2023/11/20 00:28:44;;;;;;;21.27;12.43;;;6.60;99.90;;;;;;4962359;28;20038;-56
2023/11/20 00:31:14;;;;;;;17.98;12.20;;;6.90;99.90;;;;;;4961224;28;20035;-58
2023/11/20 00:33:40;;;;;;;18.77;13.07;;;7.00;99.90;;;;;;4961483;28;20054;-58
2023/11/20 00:36:06;;;;;;;20.83;12.65;;;7.20;99.90;;;;;;4954131;29;20047;-59
2023/11/20 00:38:32;;;;;;;19.60;12.85;;;7.30;99.90;;;;;;4954034;28;20106;-59
2023/11/20 00:40:58;;;;;;;17.48;12.00;;;7.50;99.90;;;;;;4954075;28;20488;-55
2023/11/20 00:43:24;;;;;;;19.77;12.57;;;7.60;99.90;;;;;;4953565;28;20055;-57
2023/11/20 00:45:49;;;;;;;22.10;13.55;;;7.60;99.90;;;;;;4920187;29;20039;-56
2023/11/20 00:48:15;;;;;;;33.92;16.65;;;7.70;99.90;;;;;;4953773;28;20047;-60
2023/11/20 00:50:41;;;;;;;54.92;27.55;;;7.80;99.90;;;;;;4954138;29;20051;-58
2023/11/20 00:53:07;;;;;;;45.42;22.33;;;7.90;99.90;;;;;;4935862;29;20063;-57
2023/11/20 00:55:33;;;;;;;44.17;22.85;;;7.90;99.90;;;;;;4954295;29;20494;-59
2023/11/20 00:57:59;;;;;;;29.50;17.17;;;8.00;99.90;;;;;;4954169;29;20057;-58
2023/11/20 01:00:25;;;;;;;23.25;15.73;;;8.00;99.90;;;;;;4954276;28;20031;-58
2023/11/20 01:02:51;;;;;;;23.40;15.23;;;8.00;99.90;;;;;;4951135;29;20035;-55
2023/11/20 01:05:18;;;;;;;22.77;15.55;;;;;;;;;;4953659;29;20031;-60
2023/11/20 01:07:44;;;;;;;22.15;14.95;;;8.20;99.90;;;;;;4953602;29;20509;-61
2023/11/20 01:10:10;;;;;;;66.07;28.02;;;8.00;99.90;;;;;;4953628;28;20028;-57
2023/11/20 01:12:36;;;;;;;49.33;27.92;;;8.00;99.90;;;;;;4919598;29;20039;-60
2023/11/20 01:15:03;;;;;;;41.40;23.30;;;7.50;99.90;;;;;;4935688;29;20039;-59
2023/11/20 01:17:29;;;;;;;33.25;20.25;;;7.60;99.90;;;;;;4936006;29;20047;-57
2023/11/20 01:19:55;;;;;;;22.90;16.13;;;7.60;99.90;;;;;;4953973;29;20023;-57
2023/11/20 01:22:20;;;;;;;22.33;15.45;;;7.40;99.90;;;;;;4935717;29;20039;-59
2023/11/20 01:24:46;;;;;;;23.08;15.45;;;7.60;99.90;;;;;;4953117;28;20039;-58
2023/11/20 01:27:12;;;;;;;24.10;14.50;;;7.60;99.90;;;;;;4953867;29;20047;-56
2023/11/20 01:29:38;;;;;;;21.05;15.02;;;7.70;99.90;;;;;;4953833;29;20028;-59
2023/11/20 01:32:04;;;;;;;17.05;12.05;;;7.80;99.90;;;;;;4953626;29;20114;-56
2023/11/20 01:34:29;;;;;;;19.60;12.00;;;7.50;99.90;;;;;;4921319;28;20075;-57
2023/11/20 01:36:55;;;;;;;18.08;11.75;;;7.00;99.90;;;;;;4973159;28;20069;-56
2023/11/20 01:39:21;;;;;;;18.20;11.73;;;6.60;99.90;;;;;;4972874;28;20027;-62
2023/11/20 01:41:46;;;;;;;22.77;16.33;;;6.70;99.90;;;;;;4972445;28;20030;-58
2023/11/20 01:44:12;;;;;;;25.40;15.93;;;6.40;99.90;;;;;;4972900;28;20093;-59
2023/11/20 01:46:38;;;;;;;23.15;15.55;;;;;;;;;;4954526;28;20128;-58
2023/11/20 01:49:05;;;;;;;23.23;15.25;;;;;;;;;;4972720;28;20035;-54
2023/11/20 01:51:32;;;;;;;23.67;15.43;;;;;;;;;;4972664;28;20471;-58
2023/11/20 01:53:59;;;;;;;24.35;16.20;;;7.40;99.90;;;;;;4972641;28;20035;-59
2023/11/20 01:56:29;;;;;;;23.55;14.77;;;7.40;99.90;;;;;;4940701;28;20039;-59
2023/11/20 01:58:57;;;;;;;47.63;27.17;;;;;;;;;;4976069;28;20150;-56
2023/11/20 02:01:22;;;;;;;39.50;24.42;;;7.80;99.90;;;;;;4976324;28;20054;-59
2023/11/20 02:04:09;;;;;;;32.05;20.83;;;7.70;99.90;;;;;;4976596;28;20540;-57
2023/11/20 02:06:35;;;;;;;31.30;20.40;;;7.70;99.90;;;;;;4976001;28;20613;-60
2023/11/20 02:09:01;;;;;;;28.65;19.45;;;7.40;99.90;;;;;;4975915;28;20062;-61
2023/11/20 02:11:28;;;;;;;30.45;21.00;;;7.20;99.90;;;;;;4976102;28;20109;-55
2023/11/20 02:13:54;;;;;;;35.92;22.27;;;7.40;99.90;;;;;;4976052;28;20054;-57
2023/11/20 02:16:20;;;;;;;33.53;21.92;;;7.20;99.90;;;;;;4941562;28;20039;-57
2023/11/20 02:18:46;;;;;;;29.10;19.92;;;7.00;99.90;;;;;;4941570;28;20066;-58
2023/11/20 02:21:12;;;;;;;24.55;17.10;;;7.00;99.90;;;;;;4976101;28;20089;-55
2023/11/20 02:23:38;;;;;;;32.00;17.10;;;6.70;99.90;;;;;;4975891;28;20038;-54
2023/11/20 02:26:39;;;;;;;24.52;17.63;;;6.70;99.90;;;;;;4975783;28;20031;-59
2023/11/20 02:29:26;;;;;;;22.77;14.98;;;6.90;99.90;;;;;;4878293;29;20037;-57
2023/11/20 02:31:53;;;;;;;24.10;14.25;;;7.00;99.90;;;;;;4969750;28;20125;-56
2023/11/20 02:34:19;;;;;;;18.83;13.00;;;7.20;99.90;;;;;;4975754;28;20022;-56
2023/11/20 02:36:45;;;;;;;22.60;14.88;;;;;;;;;;4975999;28;20026;-59
2023/11/20 02:39:11;;;;;;;21.38;14.93;;;7.80;99.90;;;;;;4975578;28;20158;-56
2023/11/20 02:41:36;;;;;;;47.58;23.27;;;7.60;99.90;;;;;;4975959;28;20114;-58
2023/11/20 02:44:03;;;;;;;22.90;14.15;;;7.80;99.90;;;;;;4975111;28;20054;-59
2023/11/20 02:46:29;;;;;;;21.25;14.10;;;7.70;99.90;;;;;;4975566;28;20062;-58
2023/11/20 02:48:55;;;;;;;18.90;14.13;;;7.80;99.90;;;;;;4974819;28;20525;-55
2023/11/20 02:51:21;;;;;;;20.92;13.73;;;7.80;99.90;;;;;;4975299;28;20026;-59
2023/11/20 02:53:47;;;;;;;24.48;14.75;;;7.90;99.90;;;;;;4975273;28;20038;-55
2023/11/20 02:56:13;;;;;;;21.33;14.27;;;7.70;99.90;;;;;;4975547;28;20027;-57
2023/11/20 02:58:39;;;;;;;70.25;34.13;;;7.90;99.90;;;;;;4975627;28;20054;-56
2023/11/20 03:01:07;;;;;;;29.92;18.73;;;8.00;99.90;;;;;;4975156;28;20031;-54
2023/11/20 03:03:33;;;;;;;26.20;14.63;;;8.10;99.90;;;;;;4975617;28;20026;-58
2023/11/20 03:05:59;;;;;;;22.17;14.55;;;8.20;99.90;;;;;;4974651;28;20030;-56
2023/11/20 03:08:26;;;;;;;17.25;13.02;;;8.20;99.90;;;;;;4975129;28;20447;-59
2023/11/20 03:10:52;;;;;;;50.92;31.58;;;8.20;99.90;;;;;;4975098;28;20121;-57
2023/11/20 03:13:18;;;;;;;23.27;16.90;;;8.10;99.90;;;;;;4974800;28;20110;-54
2023/11/20 03:15:44;;;;;;;18.85;13.20;;;8.20;99.90;;;;;;4975090;28;20031;-57
2023/11/20 03:18:10;;;;;;;16.88;12.23;;;8.20;99.90;;;;;;4974727;28;20291;-58
2023/11/20 03:20:36;;;;;;;15.20;10.55;;;8.20;99.90;;;;;;4975210;28;20031;-55
2023/11/20 03:23:02;;;;;;;16.02;11.55;;;8.20;99.90;;;;;;4974741;28;20110;-59
2023/11/20 03:25:27;;;;;;;14.18;10.45;;;8.00;99.90;;;;;;4974773;28;20031;-58
2023/11/20 03:27:54;;;;;;;15.35;11.10;;;8.00;99.90;;;;;;4974605;28;20042;-61
2023/11/20 03:30:22;;;;;;;15.65;10.93;;;7.90;99.90;;;;;;4974612;28;20049;-61
2023/11/20 03:32:48;;;;;;;14.95;10.80;;;7.80;99.90;;;;;;4974813;28;20038;-61
2023/11/20 03:35:13;;;;;;;18.40;11.15;;;7.80;99.90;;;;;;4974446;28;20039;-57
2023/11/20 03:37:39;;;;;;;17.63;11.63;;;7.70;99.90;;;;;;4974580;28;20027;-58
2023/11/20 03:40:07;;;;;;;16.90;12.65;;;7.60;99.90;;;;;;4974288;28;20114;-58
2023/11/20 03:42:34;;;;;;;16.40;11.70;;;7.40;99.90;;;;;;4908889;28;20050;-56
2023/11/20 03:45:00;;;;;;;17.40;12.45;;;;;;;;;;4974555;28;20035;-56
2023/11/20 03:47:26;;;;;;;19.70;12.68;;;7.60;99.90;;;;;;4974123;28;20494;-59
2023/11/20 03:49:52;;;;;;;19.30;14.43;;;7.50;99.90;;;;;;4974610;28;20054;-60
2023/11/20 03:52:18;;;;;;;19.92;13.70;;;7.60;99.90;;;;;;4974068;28;20656;-57
2023/11/20 03:54:43;;;;;;;17.77;13.68;;;7.70;99.90;;;;;;4974077;28;20031;-56
2023/11/20 03:57:09;;;;;;;23.85;16.25;;;7.90;99.90;;;;;;4974141;28;20038;-55
2023/11/20 03:59:35;;;;;;;24.60;18.98;;;8.00;99.90;;;;;;4955916;28;20035;-56
2023/11/20 04:02:01;;;;;;;25.00;18.60;;;8.00;99.90;;;;;;4974203;28;20429;-57
2023/11/20 04:04:27;;;;;;;27.27;18.83;;;8.10;99.90;;;;;;4973776;28;20382;-56
2023/11/20 04:06:52;;;;;;;28.42;19.95;;;8.20;99.90;;;;;;4974061;28;20027;-57
2023/11/20 04:09:19;;;;;;;29.20;21.27;;;8.20;99.90;;;;;;4974392;28;20470;-58
2023/11/20 04:11:44;;;;;;;33.65;20.70;;;8.30;99.90;;;;;;4973772;28;20031;-59
2023/11/20 04:14:10;;;;;;;28.77;18.92;;;8.30;99.90;;;;;;4973747;28;20081;-59
2023/11/20 04:16:38;;;;;;;24.63;16.67;;;8.20;99.90;;;;;;4974167;28;20027;-58
2023/11/20 04:19:04;;;;;;;24.20;17.75;;;8.30;99.90;;;;;;4973382;28;20398;-60
2023/11/20 04:21:31;;;;;;;28.05;20.50;;;;;;;;;;4973899;28;20034;-59
2023/11/20 04:23:58;;;;;;;29.95;20.80;;;8.40;99.90;;;;;;4973593;28;20390;-57
2023/11/20 04:26:24;;;;;;;29.80;20.77;;;8.40;99.90;;;;;;4973572;28;20486;-58
2023/11/20 04:28:49;;;;;;;33.88;23.02;;;8.40;99.90;;;;;;4973590;28;20134;-59
2023/11/20 04:31:15;;;;;;;35.28;24.52;;;8.50;99.90;;;;;;4973479;28;20033;-59
2023/11/20 04:33:43;;;;;;;35.33;25.63;;;8.60;99.90;;;;;;4955266;28;20100;-57
2023/11/20 04:36:10;;;;;;;38.63;26.98;;;8.60;99.90;;;;;;4973493;28;20390;-59
2023/11/20 04:38:39;;;;;;;34.97;25.88;;;8.50;99.90;;;;;;4973501;28;20038;-57
2023/11/20 04:41:05;;;;;;;37.25;27.17;;;8.60;99.90;;;;;;4973375;28;20167;-58
2023/11/20 04:43:31;;;;;;;43.47;27.10;;;8.60;99.90;;;;;;4973308;28;20055;-59
2023/11/20 04:45:58;;;;;;;37.22;27.75;;;8.60;99.90;;;;;;4973374;28;20371;-59
2023/11/20 04:48:24;;;;;;;38.80;25.70;;;8.70;99.90;;;;;;4973094;28;20505;-57
2023/11/20 04:50:50;;;;;;;34.45;25.23;;;8.70;99.90;;;;;;4973135;28;20026;-57
2023/11/20 04:53:16;;;;;;;38.08;25.92;;;8.70;99.90;;;;;;4973507;28;20031;-58
2023/11/20 04:55:42;;;;;;;31.77;25.13;;;8.70;99.90;;;;;;4973418;28;20466;-54
2023/11/20 04:58:08;;;;;;;35.50;25.48;;;8.70;99.90;;;;;;4973116;28;20027;-58
2023/11/20 05:00:34;;;;;;;31.00;23.20;;;8.80;99.90;;;;;;4973338;28;20058;-56
2023/11/20 05:03:00;;;;;;;30.17;22.20;;;8.80;99.90;;;;;;4973145;28;20031;-60
2023/11/20 05:05:26;;;;;;;30.90;21.08;;;8.80;99.90;;;;;;4955006;28;20393;-58
2023/11/20 05:07:52;;;;;;;31.42;21.42;;;9.20;99.90;;;;;;4973022;28;20035;-55
2023/11/20 05:10:18;;;;;;;28.42;20.38;;;8.90;99.90;;;;;;4973202;28;20038;-57
2023/11/20 05:12:44;;;;;;;25.75;18.80;;;;;;;;;;4973168;28;20031;-59
2023/11/20 05:15:10;;;;;;;26.88;18.10;;;;;;;;;;4972608;28;20042;-58
2023/11/20 05:17:36;;;;;;;24.52;16.65;;;9.00;99.90;;;;;;4973019;28;20027;-62
2023/11/20 05:20:02;;;;;;;25.55;17.58;;;9.10;99.90;;;;;;4972862;28;20038;-61
2023/11/20 05:22:28;;;;;;;22.02;16.17;;;9.10;99.90;;;;;;4972562;28;20026;-57
2023/11/20 05:24:53;;;;;;;20.95;15.18;;;9.10;99.90;;;;;;4973176;28;20437;-57
2023/11/20 05:27:19;;;;;;;17.77;12.55;;;9.00;99.90;;;;;;4972482;28;20042;-59
2023/11/20 05:29:48;;;;;;;20.55;13.57;;;9.20;99.90;;;;;;4972574;28;20034;-55
2023/11/20 05:32:14;;;;;;;19.42;13.50;;;9.10;99.90;;;;;;4976348;28;20037;-60
2023/11/20 05:34:40;;;;;;;17.85;12.73;;;9.20;99.90;;;;;;4972251;28;20038;-58
2023/11/20 05:37:06;;;;;;;19.67;13.52;;;9.30;99.90;;;;;;4976979;28;20052;-58
2023/11/20 05:39:31;;;;;;;20.48;14.73;;;9.20;99.90;;;;;;4976581;28;20486;-59
2023/11/20 05:41:57;;;;;;;18.83;14.50;;;9.20;99.90;;;;;;4976302;28;20042;-59
2023/11/20 05:44:23;;;;;;;18.80;14.48;;;9.20;99.90;;;;;;4942279;28;20438;-60
2023/11/20 05:46:49;;;;;;;24.55;14.38;;;9.00;99.90;;;;;;4973805;28;20042;-57
2023/11/20 05:49:14;;;;;;;16.65;12.98;;;9.00;99.90;;;;;;4976296;28;20039;-58
2023/11/20 05:51:42;;;;;;;18.92;12.52;;;8.90;99.90;;;;;;4975946;28;20037;-60
2023/11/20 05:54:08;;;;;;;20.77;14.63;;;9.20;99.90;;;;;;4958274;28;20121;-56
2023/11/20 05:56:38;;;;;;;19.35;13.65;;;9.30;99.90;;;;;;4976119;28;20043;-58
2023/11/20 05:59:04;;;;;;;19.50;13.13;;;9.40;99.90;;;;;;4968065;28;20039;-57
2023/11/20 06:01:40;;;;;;;19.80;11.98;;;9.50;99.90;;;;;;4966209;28;20591;-55
2023/11/20 06:04:08;;;;;;;18.38;13.43;;;9.60;99.90;;;;;;4960330;28;20106;-58
2023/11/20 06:06:34;;;;;;;17.60;12.68;;;9.60;99.90;;;;;;4958203;28;20031;-59
2023/11/20 06:09:04;;;;;;;16.40;13.68;;;9.60;99.90;;;;;;4958207;28;20045;-60
2023/11/20 06:11:29;;;;;;;18.95;12.93;;;9.60;99.90;;;;;;4972409;28;20118;-57
2023/11/20 06:13:57;;;;;;;18.30;13.25;;;9.60;99.90;;;;;;4970456;28;20547;-58
2023/11/20 06:16:22;;;;;;;27.92;19.35;;;9.70;99.90;;;;;;4964947;28;20489;-59
2023/11/20 06:18:48;;;;;;;24.75;17.38;;;9.60;99.90;;;;;;4975876;28;20027;-55
2023/11/20 06:21:14;;;;;;;31.15;22.50;;;9.70;99.90;;;;;;4971600;28;20037;-54
2023/11/20 06:23:40;;;;;;;28.75;20.05;;;9.80;99.90;;;;;;4965412;28;20039;-53
2023/11/20 06:26:06;;;;;;;18.95;13.90;;;9.80;99.90;;;;;;4964804;28;20019;-53
2023/11/20 06:28:32;;;;;;;16.30;12.43;;;;;;;;;;4948554;28;20055;-55
2023/11/20 06:30:58;;;;;;;16.85;12.20;;;;;;;;;;4965667;28;20058;-55
2023/11/20 06:33:24;;;;;;;14.50;11.40;;;10.00;99.90;;;;;;4966580;28;20027;-55
2023/11/20 06:35:50;;;;;;;15.82;11.50;;;10.00;99.90;;;;;;4975007;28;20034;-54
2023/11/20 06:38:16;;;;;;;14.15;11.52;;;10.00;99.90;;;;;;4957267;28;20046;-53
2023/11/20 06:40:42;;;;;;;12.90;10.27;;;10.10;99.90;;;;;;4974883;28;20030;-53
2023/11/20 06:43:08;;;;;;;16.95;12.10;;;10.20;99.90;;;;;;4959773;28;20087;-53
2023/11/20 06:45:37;;;;;;;17.50;11.57;;;10.10;99.90;;;;;;4956254;29;20118;-53
2023/11/20 06:48:03;;;;;;;15.35;12.23;;;;;;;;;;4921939;29;20549;-53
2023/11/20 06:50:29;;;;;;;14.25;11.63;;;10.40;99.90;;;;;;4952650;29;20067;-54
2023/11/20 06:52:55;;;;;;;17.08;11.30;;;10.40;99.90;;;;;;4955912;28;20423;-53
2023/11/20 06:55:24;;;;;;;14.85;10.15;;;10.40;99.90;;;;;;4956089;28;20035;-53
2023/11/20 06:57:50;;;;;;;14.02;10.02;;;10.40;99.90;;;;;;4956156;28;20032;-53
2023/11/20 07:00:16;;;;;;;13.75;10.85;;;10.50;99.90;;;;;;4955853;28;20043;-54
2023/11/20 07:02:42;;;;;;;15.40;11.82;;;10.50;99.90;;;;;;4937727;28;20094;-55
2023/11/20 07:05:17;;;;;;;78.88;47.03;;;10.60;99.90;;;;;;4956189;28;20038;-55
2023/11/20 07:07:53;;;;;;;145.43;84.82;;;10.50;99.90;;;;;;4952588;28;20053;-53
2023/11/20 07:10:25;;;;;;;37.13;26.20;;;10.40;99.90;;;;;;4975287;28;20058;-53
2023/11/20 07:12:56;;;;;;;36.13;25.92;;;10.40;99.90;;;;;;4975008;28;20034;-54
2023/11/20 07:15:23;;;;;;;35.97;27.17;;;10.40;99.90;;;;;;4975249;28;20061;-55
2023/11/20 07:17:49;;;;;;;40.97;28.00;;;10.40;99.90;;;;;;4975230;28;20446;-53
2023/11/20 07:20:16;;;;;;;51.58;36.00;;;10.40;99.90;;;;;;4975163;28;20041;-53
2023/11/20 07:22:42;;;;;;;54.53;36.40;;;10.50;99.90;;;;;;4974901;28;20030;-54
2023/11/20 07:25:08;;;;;;;47.25;33.28;;;10.70;99.90;;;;;;4974610;28;20031;-54
2023/11/20 07:27:37;;;;;;;47.03;31.52;;;10.60;99.90;;;;;;4972619;28;20510;-54
2023/11/20 07:30:06;;;;;;;45.05;32.45;;;;;;;;;;4974850;28;20109;-53
2023/11/20 07:32:33;;;;;;;40.75;31.75;;;;;;;;;;4974591;28;20066;-55
2023/11/20 07:34:59;;;;;;;48.78;33.90;;;;;;;;;;4962783;28;20063;-55
2023/11/20 07:37:25;;;;;;;39.80;31.35;;;;;;;;;;4965005;28;20070;-57
2023/11/20 07:39:50;;;;;;;40.67;29.05;;;10.50;99.90;;;;;;4974852;28;20026;-59
2023/11/20 07:42:16;;;;;;;36.22;26.77;;;10.90;99.90;;;;;;4940126;28;20121;-55
2023/11/20 07:44:42;;;;;;;27.33;22.95;;;10.90;99.90;;;;;;4940334;28;20042;-58
2023/11/20 07:47:07;;;;;;;29.23;22.95;;;10.90;99.90;;;;;;4974204;28;20138;-58
2023/11/20 07:49:33;;;;;;;29.88;22.13;;;10.90;99.90;;;;;;4974500;28;20085;-55
2023/11/20 07:51:59;;;;;;;34.10;25.70;;;10.70;99.90;;;;;;4974695;28;20027;-55
2023/11/20 07:54:26;;;;;;;26.40;19.90;;;10.70;99.90;;;;;;4939368;28;20058;-58
2023/11/20 07:56:52;;;;;;;24.55;18.95;;;;;;;;;;4974233;28;20027;-56
2023/11/20 07:59:19;;;;;;;36.75;22.48;;;;;;;;;;4974044;28;20586;-56
2023/11/20 08:01:45;;;;;;;114.55;55.65;;;;;;;;;;4954247;28;20061;-56
2023/11/20 08:04:11;;;;;;;155.93;75.47;;;10.90;99.90;;;;;;4974084;28;20027;-58
2023/11/20 08:06:37;;;;;;;119.97;61.88;;;10.80;99.90;;;;;;4973929;28;20031;-57
2023/11/20 08:09:03;;;;;;;80.65;50.13;;;10.80;99.90;;;;;;4973742;28;20026;-57
2023/11/20 08:11:49;;;;;;;79.00;51.78;;;10.70;99.90;;;;;;4913989;29;20196;-54
2023/11/20 08:14:15;;;;;;;104.57;79.07;;;10.70;99.90;;;;;;4913759;29;20420;-56
2023/11/20 08:16:41;;;;;;;101.35;79.20;;;10.70;99.90;;;;;;4914131;29;20122;-57
2023/11/20 08:30:17;;;;;;;36.90;28.70;;;;;;;;;;4987441;27;1398006;-54
2023/11/20 08:32:43;;;;;;;54.78;37.63;;;;;;;;;;5049896;28;20044;-56
2023/11/20 08:35:09;;;;;;;58.90;40.22;;;11.70;99.90;;;;;;5016463;28;20024;-56
2023/11/20 08:37:35;;;;;;;50.38;34.50;;;11.50;99.90;;;;;;5002577;28;20727;-54
2023/11/20 08:40:00;;;;;;;58.50;38.40;;;11.50;99.90;;;;;;4999627;28;20024;-54
2023/11/20 08:42:26;;;;;;;44.63;30.10;;;11.50;99.90;;;;;;4966585;28;20033;-53
2023/11/20 08:44:53;;;;;;;44.50;33.95;;;11.50;99.90;;;;;;5008993;28;20033;-56
2023/11/20 08:47:20;;;;;;;76.20;49.83;;;11.60;99.90;;;;;;5010581;28;20487;-55
2023/11/20 08:49:46;;;;;;;107.40;68.43;;;;;;;;;;5009887;28;21596;-55
2023/11/20 08:52:12;;;;;;;49.35;37.42;;;;;;;;;;5005988;28;20035;-52
2023/11/20 08:54:38;;;;;;;31.40;20.95;;;;;;;;;;5000393;28;20552;-56
2023/11/20 08:57:05;;;;;;;30.80;21.63;;;12.10;99.90;;;;;;5005398;28;21916;-55
2023/11/20 08:59:31;;;;;;;31.58;22.02;;;11.80;99.90;;;;;;4950078;28;20737;-53
2023/11/20 09:01:56;;;;;;;36.28;25.20;;;11.70;99.90;;;;;;4996227;28;20028;-52
2023/11/20 09:04:24;;;;;;;33.95;24.23;;;11.70;99.90;;;;;;4965986;28;20128;-55
2023/11/20 09:06:50;;;;;;;35.67;25.13;;;11.80;99.90;;;;;;5007679;28;20036;-54
2023/11/20 09:09:16;;;;;;;49.33;32.58;;;11.90;99.90;;;;;;5016942;28;20035;-54
2023/11/20 09:11:42;;;;;;;62.05;43.25;;;12.00;99.90;;;;;;4965485;28;20045;-55
2023/11/20 09:14:08;;;;;;;50.92;34.95;;;12.10;99.90;;;;;;4979846;28;21297;-53
2023/11/20 09:16:34;;;;;;;49.90;38.42;;;12.30;99.90;;;;;;5016629;28;20528;-55
2023/11/20 09:19:00;;;;;;;42.45;30.75;;;;;;;;;;5029438;28;20036;-57
2023/11/20 09:21:26;;;;;;;32.60;24.17;;;12.80;99.90;;;;;;5015340;28;20849;-59
2023/11/20 09:23:52;;;;;;;33.30;24.13;;;13.10;99.90;;;;;;4997017;28;20131;-53
2023/11/20 09:26:18;;;;;;;29.88;21.08;;;13.30;99.90;;;;;;4991168;28;20084;-57
2023/11/20 09:28:43;;;;;;;29.08;20.20;;;13.60;99.90;;;;;;4996704;28;20053;-52
2023/11/20 09:31:17;;;;;;;60.97;37.72;;;13.60;99.90;;;;;;4981944;28;20028;-56
2023/11/20 09:33:43;;;;;;;57.70;38.95;;;13.50;99.90;;;;;;4990723;28;20053;-56
2023/11/20 09:36:09;;;;;;;49.67;33.10;;;13.50;99.90;;;;;;4993082;28;20021;-56
2023/11/20 09:38:35;;;;;;;61.60;39.63;;;13.50;99.90;;;;;;5001382;28;20396;-58
2023/11/20 09:41:01;;;;;;;78.97;45.53;;;13.50;99.90;;;;;;4976057;28;20037;-55
2023/11/20 09:43:31;;;;;;;94.20;48.92;;;13.60;99.90;;;;;;4993219;28;20095;-59
2023/11/20 09:46:06;;;;;;;106.63;53.88;;;13.50;99.90;;;;;;5002663;28;20416;-59
2023/11/20 09:48:36;;;;;;;36.55;22.88;;;13.60;99.90;;;;;;5005088;28;20048;-58
2023/11/20 09:51:05;;;;;;;32.60;21.02;;;13.70;99.90;;;;;;4991485;28;20721;-56
2023/11/20 09:53:39;;;;;;;32.65;21.65;;;13.90;99.90;;;;;;4997695;28;20025;-55
2023/11/20 09:56:06;;;;;;;23.23;16.50;;;14.00;99.90;;;;;;4983838;28;20049;-57
2023/11/20 09:58:37;;;;;;;27.40;17.08;;;14.00;99.90;;;;;;5014565;28;20090;-57
2023/11/20 10:01:07;;;;;;;23.85;14.65;;;14.10;99.90;;;;;;5006401;28;20025;-58
2023/11/20 10:03:39;;;;;;;14.10;9.35;;;;;;;;;;5006237;28;20017;-56
2023/11/20 10:06:08;;;;;;;9.57;6.57;;;14.30;99.90;;;;;;5005614;28;20044;-56
2023/11/20 10:08:40;;;;;;;6.30;5.20;;;14.50;99.90;;;;;;4962516;28;20040;-56
2023/11/20 10:11:07;;;;;;;9.43;6.13;;;14.80;99.90;;;;;;4967581;28;20051;-56
2023/11/20 10:13:33;;;;;;;7.72;5.60;;;15.00;99.90;;;;;;4984432;28;20033;-58
2023/11/20 10:15:59;;;;;;;6.78;4.88;;;15.10;99.90;;;;;;4975963;28;20641;-58
2023/11/20 10:18:26;;;;;;;7.03;5.25;;;15.30;99.90;;;;;;4960483;28;20523;-55
2023/11/20 10:20:52;;;;;;;8.30;5.63;;;15.30;99.90;;;;;;4964336;28;20105;-55
2023/11/20 10:23:19;;;;;;;7.90;5.25;;;;;;;;;;4972081;28;20530;-59
2023/11/20 10:25:45;;;;;;;12.05;8.32;;;16.80;99.90;;;;;;4965671;28;20041;-61
2023/11/20 10:28:14;;;;;;;13.77;9.52;;;;;;;;;;4959940;28;20072;-55
2023/11/20 10:30:42;;;;;;;14.88;10.70;;;;;;;;;;4957102;28;20528;-56
2023/11/20 10:33:18;;;;;;;11.73;8.68;;;19.00;99.10;;;;;;4959936;28;21515;-54
2023/11/20 10:35:45;;;;;;;12.25;8.98;;;19.40;98.10;;;;;;4889447;28;20084;-59
2023/11/20 10:38:11;;;;;;;13.10;8.45;;;20.10;96.70;;;;;;4913214;28;20165;-53
2023/11/20 10:40:41;;;;;;;7.85;6.28;;;20.50;97.60;;;;;;4931414;28;20155;-53
2023/11/20 10:43:09;;;;;;;7.88;6.63;;;;;;;;;;4950237;28;20041;-56
2023/11/20 10:45:36;;;;;;;8.55;6.07;;;;;;;;;;4960027;28;20042;-54
2023/11/20 10:48:06;;;;;;;7.05;5.25;;;;;;;;;;4983966;28;20578;-57
2023/11/20 10:50:35;;;;;;;7.53;5.05;;;;;;;;;;4981157;28;20104;-53
2023/11/20 10:53:08;;;;;;;6.35;4.75;;;22.30;96.20;;;;;;4994853;28;20045;-56
2023/11/20 10:55:49;;;;;;;8.30;6.15;;;;;;;;;;4976711;28;20432;-54
2023/11/20 10:58:16;;;;;;;6.55;4.28;;;;;;;;;;5003085;28;21389;-56
2023/11/20 11:00:42;;;;;;;10.27;6.75;;;21.90;89.20;;;;;;5014596;28;20029;-57
2023/11/20 11:03:11;;;;;;;7.47;5.75;;;21.90;88.00;;;;;;5019806;28;20025;-52
2023/11/20 11:05:39;;;;;;;7.60;5.07;;;21.50;88.30;;;;;;5005423;28;20037;-55
2023/11/20 11:08:09;;;;;;;11.43;5.80;;;21.40;90.10;;;;;;5015999;28;20020;-58
2023/11/20 11:10:44;;;;;;;8.80;4.90;;;21.80;90.60;;;;;;4961902;28;20124;-54
2023/11/20 11:13:11;;;;;;;8.95;4.20;;;;;;;;;;4992246;28;20025;-55
2023/11/20 11:15:37;;;;;;;10.32;6.10;;;;;;;;;;4998687;28;20530;-55
2023/11/20 11:18:08;;;;;;;7.85;5.35;;;;;;;;;;5003447;28;20056;-57
2023/11/20 11:20:43;;;;;;;6.43;5.20;;;22.20;91.90;;;;;;4969360;28;22023;-55
2023/11/20 11:23:10;;;;;;;9.13;5.20;;;;;;;;;;4978572;28;20040;-51
2023/11/20 11:25:56;;;;;;;8.40;5.03;;;;;;;;;;4975795;28;21807;-61
2023/11/20 11:28:24;;;;;;;16.25;6.25;;;21.80;84.90;;;;;;4955070;28;20045;-55
2023/11/20 11:30:51;;;;;;;7.72;5.13;;;21.60;86.10;;;;;;4958465;28;20033;-56
2023/11/20 11:33:35;;;;;;;7.25;5.40;;;21.70;85.90;;;;;;4986692;28;20021;-57
2023/11/20 11:36:13;;;;;;;8.15;5.25;;;21.70;98.50;;;;;;5004981;28;20028;-55
2023/11/20 11:38:41;;;;;;;7.15;5.20;;;;;;;;;;4978742;28;20037;-52
2023/11/20 11:41:17;;;;;;;8.55;5.22;;;21.40;93.50;;;;;;4995711;28;20055;-57
2023/11/20 11:44:01;;;;;;;8.18;5.80;;;21.00;99.50;;;;;;4988691;28;20021;-56
2023/11/20 11:46:27;;;;;;;7.95;4.65;;;;;;;;;;4992250;28;20942;-56
2023/11/20 11:49:13;;;;;;;15.93;5.57;;;21.10;89.50;;;;;;4998218;28;20029;-56
2023/11/20 11:51:38;;;;;;;8.93;5.72;;;20.90;87.40;;;;;;4997267;28;20052;-52
2023/11/20 11:54:17;;;;;;;35.15;18.20;;;20.20;87.70;;;;;;5004790;28;20512;-57
2023/11/20 11:57:07;;;;;;;9.50;4.57;;;20.00;86.70;;;;;;5008360;28;20497;-59
2023/11/20 11:59:35;;;;;;;13.50;10.48;;;20.10;90.10;;;;;;4962639;28;20108;-56
2023/11/20 12:02:02;;;;;;;7.75;5.10;;;;;;;;;;4942142;28;20100;-54
2023/11/20 12:04:46;;;;;;;7.53;4.50;;;;;;;;;;4954422;28;20048;-55
2023/11/20 12:07:12;;;;;;;17.95;6.15;;;19.60;99.90;;;;;;4954555;28;20037;-58
2023/11/20 12:10:11;;;;;;;9.00;5.13;;;19.60;92.30;;;;;;4958357;28;20516;-54
2023/11/20 12:12:50;;;;;;;11.50;4.75;;;19.40;88.60;;;;;;4936554;28;20036;-57
2023/11/20 12:15:45;;;;;;;8.80;4.47;;;19.40;91.80;;;;;;4953301;28;21879;-53
2023/11/20 12:18:12;;;;;;;9.07;5.82;;;19.30;92.70;;;;;;4972165;28;20528;-55
2023/11/20 12:20:42;;;;;;;9.85;7.10;;;;;;;;;;4969558;28;21377;-53
2023/11/20 12:23:19;;;;;;;9.23;5.22;;;19.00;99.90;;;;;;4948941;28;20870;-58
2023/11/20 12:25:45;;;;;;;8.02;5.55;;;;;;;;;;4950086;28;20081;-61
2023/11/20 12:28:12;;;;;;;11.75;7.95;;;;;;;;;;4952537;28;20038;-54
2023/11/20 17:31:18;;;;;;;22.30;14.18;;;11.00;99.90;;;;;;5074386;28;20119;-58
2023/11/20 17:34:04;;;;;;;15.23;9.80;;;10.60;99.90;;;;;;5051181;28;20124;-56
2023/11/20 17:40:55;;;;;;;31.13;15.60;;;10.30;99.90;;;;;;5050984;28;20107;-55
2023/11/20 18:11:50;;;;;;;16.95;12.38;;;9.80;99.90;;;;;;5061826;28;20067;-57
2023/11/20 18:26:09;;;;;;;21.15;16.23;;;10.00;99.90;;;;;;5082098;28;20062;-56
2023/11/20 18:43:57;;;;;;;17.58;11.98;;;9.70;99.90;;;;;;5093980;28;20097;-55
2023/11/20 19:00:53;;;;;;;20.20;11.98;;;9.70;99.90;;;;;;5046612;28;20120;-54
2023/11/20 19:11:19;;;;;;;17.98;11.85;;;9.60;99.90;;;;;;5049701;28;20036;-54
2023/11/20 19:18:30;;;;;;;17.25;11.80;;;9.60;99.90;;;;;;5007656;28;20132;-50
2023/11/20 19:25:04;;;;;;;18.63;12.82;;;9.40;99.90;;;;;;5029924;28;20044;-53
2023/11/20 19:51:54;;;;;;;18.67;10.93;;;;;;;;;;5051979;28;20048;-57
2023/11/20 20:18:46;;;;;;;18.05;12.40;;;;;;;;;;5052178;28;20069;-55
2023/11/20 21:22:16;;;;;;;25.88;16.75;;;8.60;99.90;;;;;;5053398;28;20075;-51
2023/11/20 21:45:03;;;;;;;19.15;12.27;;;;;;;;;;5073776;28;20050;-54
2023/11/20 22:07:00;;;;;;;12.82;9.68;;;;;;;;;;5093631;28;20034;-53